aviador You're here:

PFNO Decoded Metar

in
Report Time2017-10-17 20:07:00
UTC Time2017-10-17 20:20:10
Flight Rules lifr LIFR
WindCalm
Visibility402 m
Phenomena:Freezing Fog
Clouds:Broken 002 Hf
Overcast 085 Hf
Expected CloudBase > 400 ft AGL from Temp-Dew spread
Ceiling200 ft
Temp-5°C
Dew Point-6°C (93% RH)
AAT-7.7°C
QNH999 hPa
Raw Report
PFNO 172007Z AUTO 00000KT 1/4SM FZFG BKN002 OVC085 M05/M06 A2951
RMK AO2 FZRANO=

Extra information for PFNO:More info

Social comments